sensor_id;sensor_type;location;lat;lon;timestamp;P1;durP1;ratioP1;P2;durP2;ratioP2
8562;SDS011;16392;52.508;13.468;2022-10-24T00:01:11;427.75;;;108.35;;
8562;SDS011;16392;52.508;13.468;2022-10-24T00:03:39;427.15;;;106.13;;
8562;SDS011;16392;52.508;13.468;2022-10-24T00:06:07;427.23;;;107.32;;
8562;SDS011;16392;52.508;13.468;2022-10-24T00:08:34;429.52;;;107.15;;
8562;SDS011;16392;52.508;13.468;2022-10-24T00:11:06;430.55;;;109.22;;
8562;SDS011;16392;52.508;13.468;2022-10-24T00:13:34;429.23;;;105.88;;
8562;SDS011;16392;52.508;13.468;2022-10-24T00:16:01;430.65;;;108.70;;
8562;SDS011;16392;52.508;13.468;2022-10-24T00:18:29;426.60;;;103.68;;
8562;SDS011;16392;52.508;13.468;2022-10-24T00:20:55;426.30;;;103.10;;
8562;SDS011;16392;52.508;13.468;2022-10-24T00:23:22;431.63;;;120.60;;
8562;SDS011;16392;52.508;13.468;2022-10-24T00:25:49;428.50;;;111.68;;
8562;SDS011;16392;52.508;13.468;2022-10-24T00:28:15;427.13;;;107.57;;
8562;SDS011;16392;52.508;13.468;2022-10-24T00:30:42;425.80;;;104.93;;
8562;SDS011;16392;52.508;13.468;2022-10-24T00:33:09;427.98;;;108.82;;
8562;SDS011;16392;52.508;13.468;2022-10-24T00:35:36;426.42;;;103.10;;
8562;SDS011;16392;52.508;13.468;2022-10-24T00:38:03;424.55;;;105.28;;
8562;SDS011;16392;52.508;13.468;2022-10-24T00:40:30;424.23;;;103.38;;
8562;SDS011;16392;52.508;13.468;2022-10-24T00:42:56;423.55;;;103.47;;
8562;SDS011;16392;52.508;13.468;2022-10-24T00:45:36;424.33;;;103.70;;
8562;SDS011;16392;52.508;13.468;2022-10-24T00:48:09;422.75;;;98.50;;
8562;SDS011;16392;52.508;13.468;2022-10-24T00:50:41;420.40;;;99.50;;
8562;SDS011;16392;52.508;13.468;2022-10-24T00:53:09;424.27;;;103.30;;
8562;SDS011;16392;52.508;13.468;2022-10-24T00:55:36;422.63;;;101.88;;
8562;SDS011;16392;52.508;13.468;2022-10-24T00:58:03;422.10;;;102.95;;
8562;SDS011;16392;52.508;13.468;2022-10-24T01:00:33;420.02;;;96.72;;
8562;SDS011;16392;52.508;13.468;2022-10-24T01:03:00;423.45;;;101.47;;
8562;SDS011;16392;52.508;13.468;2022-10-24T01:05:29;423.45;;;101.82;;
8562;SDS011;16392;52.508;13.468;2022-10-24T01:08:03;423.30;;;104.72;;
8562;SDS011;16392;52.508;13.468;2022-10-24T01:10:36;420.02;;;98.53;;
8562;SDS011;16392;52.508;13.468;2022-10-24T01:13:13;420.65;;;97.95;;
8562;SDS011;16392;52.508;13.468;2022-10-24T01:15:48;420.65;;;101.68;;
8562;SDS011;16392;52.508;13.468;2022-10-24T01:18:19;423.70;;;103.85;;
8562;SDS011;16392;52.508;13.468;2022-10-24T01:21:05;421.10;;;101.70;;
8562;SDS011;16392;52.508;13.468;2022-10-24T01:26:57;419.48;;;97.07;;
8562;SDS011;16392;52.508;13.468;2022-10-24T01:32:27;422.13;;;102.80;;
8562;SDS011;16392;52.508;13.468;2022-10-24T01:35:03;417.33;;;97.18;;
8562;SDS011;16392;52.508;13.468;2022-10-24T01:37:36;420.42;;;97.95;;
8562;SDS011;16392;52.508;13.468;2022-10-24T01:40:08;420.52;;;100.32;;
8562;SDS011;16392;52.508;13.468;2022-10-24T01:42:39;422.67;;;99.28;;
8562;SDS011;16392;52.508;13.468;2022-10-24T01:45:09;421.10;;;99.10;;
8562;SDS011;16392;52.508;13.468;2022-10-24T01:47:40;423.27;;;100.80;;
8562;SDS011;16392;52.508;13.468;2022-10-24T01:50:12;421.08;;;99.82;;
8562;SDS011;16392;52.508;13.468;2022-10-24T01:52:41;424.00;;;98.18;;
8562;SDS011;16392;52.508;13.468;2022-10-24T01:55:10;420.52;;;100.95;;
8562;SDS011;16392;52.508;13.468;2022-10-24T01:57:37;422.80;;;103.35;;
8562;SDS011;16392;52.508;13.468;2022-10-24T02:00:04;419.50;;;97.88;;
8562;SDS011;16392;52.508;13.468;2022-10-24T02:02:35;419.63;;;99.38;;
8562;SDS011;16392;52.508;13.468;2022-10-24T02:05:06;419.83;;;97.32;;
8562;SDS011;16392;52.508;13.468;2022-10-24T02:07:40;422.58;;;102.45;;
8562;SDS011;16392;52.508;13.468;2022-10-24T02:10:09;420.10;;;96.85;;
8562;SDS011;16392;52.508;13.468;2022-10-24T02:12:42;420.20;;;97.82;;
8562;SDS011;16392;52.508;13.468;2022-10-24T02:15:13;422.98;;;99.50;;
8562;SDS011;16392;52.508;13.468;2022-10-24T02:17:46;420.33;;;97.63;;
8562;SDS011;16392;52.508;13.468;2022-10-24T02:20:13;422.10;;;100.57;;
8562;SDS011;16392;52.508;13.468;2022-10-24T02:22:41;418.83;;;98.15;;
8562;SDS011;16392;52.508;13.468;2022-10-24T02:25:16;420.63;;;98.85;;
8562;SDS011;16392;52.508;13.468;2022-10-24T02:27:50;420.90;;;96.35;;
8562;SDS011;16392;52.508;13.468;2022-10-24T02:30:20;421.27;;;98.03;;
8562;SDS011;16392;52.508;13.468;2022-10-24T02:32:51;421.30;;;97.23;;
8562;SDS011;16392;52.508;13.468;2022-10-24T02:35:21;418.95;;;95.15;;
8562;SDS011;16392;52.508;13.468;2022-10-24T02:37:52;423.98;;;99.25;;
8562;SDS011;16392;52.508;13.468;2022-10-24T02:40:20;417.95;;;93.97;;
8562;SDS011;16392;52.508;13.468;2022-10-24T02:42:48;419.10;;;97.50;;
8562;SDS011;16392;52.508;13.468;2022-10-24T02:45:17;414.65;;;92.28;;
8562;SDS011;16392;52.508;13.468;2022-10-24T02:47:45;423.52;;;100.93;;
8562;SDS011;16392;52.508;13.468;2022-10-24T02:50:17;419.73;;;96.65;;
8562;SDS011;16392;52.508;13.468;2022-10-24T02:52:44;419.40;;;97.43;;
8562;SDS011;16392;52.508;13.468;2022-10-24T02:55:11;417.95;;;92.93;;
8562;SDS011;16392;52.508;13.468;2022-10-24T02:57:38;418.88;;;96.97;;
8562;SDS011;16392;52.508;13.468;2022-10-24T03:00:05;421.33;;;97.70;;
8562;SDS011;16392;52.508;13.468;2022-10-24T03:02:33;416.77;;;95.20;;
8562;SDS011;16392;52.508;13.468;2022-10-24T03:05:00;419.67;;;96.82;;
8562;SDS011;16392;52.508;13.468;2022-10-24T03:07:28;419.20;;;98.10;;
8562;SDS011;16392;52.508;13.468;2022-10-24T03:09:54;418.17;;;95.95;;
8562;SDS011;16392;52.508;13.468;2022-10-24T03:12:21;420.52;;;99.88;;
8562;SDS011;16392;52.508;13.468;2022-10-24T03:14:48;419.15;;;99.60;;
8562;SDS011;16392;52.508;13.468;2022-10-24T03:17:15;418.67;;;95.72;;
8562;SDS011;16392;52.508;13.468;2022-10-24T03:19:41;416.73;;;94.45;;
8562;SDS011;16392;52.508;13.468;2022-10-24T03:22:09;415.45;;;91.68;;
8562;SDS011;16392;52.508;13.468;2022-10-24T03:24:37;417.50;;;97.53;;
8562;SDS011;16392;52.508;13.468;2022-10-24T03:27:04;418.45;;;95.53;;
8562;SDS011;16392;52.508;13.468;2022-10-24T03:29:31;416.83;;;94.90;;
8562;SDS011;16392;52.508;13.468;2022-10-24T03:31:57;419.35;;;95.85;;
8562;SDS011;16392;52.508;13.468;2022-10-24T03:34:24;418.50;;;95.63;;
8562;SDS011;16392;52.508;13.468;2022-10-24T03:36:51;416.27;;;92.32;;
8562;SDS011;16392;52.508;13.468;2022-10-24T03:39:18;417.10;;;97.82;;
8562;SDS011;16392;52.508;13.468;2022-10-24T03:41:46;419.02;;;99.68;;
8562;SDS011;16392;52.508;13.468;2022-10-24T03:44:12;416.13;;;93.50;;
8562;SDS011;16392;52.508;13.468;2022-10-24T03:46:39;419.10;;;99.47;;
8562;SDS011;16392;52.508;13.468;2022-10-24T03:49:06;421.00;;;100.70;;
8562;SDS011;16392;52.508;13.468;2022-10-24T03:51:33;418.13;;;98.30;;
8562;SDS011;16392;52.508;13.468;2022-10-24T03:53:59;416.33;;;96.93;;
8562;SDS011;16392;52.508;13.468;2022-10-24T03:56:26;416.33;;;93.53;;
8562;SDS011;16392;52.508;13.468;2022-10-24T03:58:54;415.48;;;91.80;;
8562;SDS011;16392;52.508;13.468;2022-10-24T04:01:21;415.88;;;91.18;;
8562;SDS011;16392;52.508;13.468;2022-10-24T04:03:48;417.05;;;93.40;;
8562;SDS011;16392;52.508;13.468;2022-10-24T04:06:15;420.98;;;99.15;;
8562;SDS011;16392;52.508;13.468;2022-10-24T04:08:41;420.80;;;96.38;;
8562;SDS011;16392;52.508;13.468;2022-10-24T04:11:08;416.30;;;92.90;;
8562;SDS011;16392;52.508;13.468;2022-10-24T04:13:35;420.83;;;98.32;;
8562;SDS011;16392;52.508;13.468;2022-10-24T04:16:03;417.20;;;94.07;;
8562;SDS011;16392;52.508;13.468;2022-10-24T04:18:30;415.08;;;93.15;;
8562;SDS011;16392;52.508;13.468;2022-10-24T04:20:57;417.90;;;96.37;;
8562;SDS011;16392;52.508;13.468;2022-10-24T04:23:23;417.85;;;96.47;;
8562;SDS011;16392;52.508;13.468;2022-10-24T04:25:51;415.48;;;95.97;;
8562;SDS011;16392;52.508;13.468;2022-10-24T04:28:18;417.20;;;96.18;;
8562;SDS011;16392;52.508;13.468;2022-10-24T04:30:45;415.58;;;93.50;;
8562;SDS011;16392;52.508;13.468;2022-10-24T04:33:13;417.60;;;97.43;;
8562;SDS011;16392;52.508;13.468;2022-10-24T04:35:45;414.98;;;95.40;;
8562;SDS011;16392;52.508;13.468;2022-10-24T04:38:12;414.60;;;94.35;;
8562;SDS011;16392;52.508;13.468;2022-10-24T04:40:39;414.77;;;95.18;;
8562;SDS011;16392;52.508;13.468;2022-10-24T04:43:06;417.07;;;93.70;;
8562;SDS011;16392;52.508;13.468;2022-10-24T04:45:33;415.67;;;95.05;;
8562;SDS011;16392;52.508;13.468;2022-10-24T04:47:59;416.83;;;93.90;;
8562;SDS011;16392;52.508;13.468;2022-10-24T04:50:27;414.20;;;94.23;;
8562;SDS011;16392;52.508;13.468;2022-10-24T04:52:54;416.50;;;93.20;;
8562;SDS011;16392;52.508;13.468;2022-10-24T04:55:21;418.30;;;96.15;;
8562;SDS011;16392;52.508;13.468;2022-10-24T04:57:47;420.80;;;94.67;;
8562;SDS011;16392;52.508;13.468;2022-10-24T05:00:14;415.38;;;94.30;;
8562;SDS011;16392;52.508;13.468;2022-10-24T05:02:42;416.10;;;95.32;;
8562;SDS011;16392;52.508;13.468;2022-10-24T05:05:09;415.67;;;91.07;;
8562;SDS011;16392;52.508;13.468;2022-10-24T05:07:38;415.10;;;92.97;;
8562;SDS011;16392;52.508;13.468;2022-10-24T05:10:05;417.52;;;96.88;;
8562;SDS011;16392;52.508;13.468;2022-10-24T05:12:33;414.65;;;92.82;;
8562;SDS011;16392;52.508;13.468;2022-10-24T05:14:59;417.73;;;96.35;;
8562;SDS011;16392;52.508;13.468;2022-10-24T05:17:26;418.13;;;93.00;;
8562;SDS011;16392;52.508;13.468;2022-10-24T05:19:53;414.00;;;90.93;;
8562;SDS011;16392;52.508;13.468;2022-10-24T05:22:19;411.60;;;90.65;;
8562;SDS011;16392;52.508;13.468;2022-10-24T05:24:47;415.87;;;96.90;;
8562;SDS011;16392;52.508;13.468;2022-10-24T05:27:14;417.92;;;98.18;;
8562;SDS011;16392;52.508;13.468;2022-10-24T05:29:47;416.35;;;97.25;;
8562;SDS011;16392;52.508;13.468;2022-10-24T05:32:14;419.23;;;94.70;;
8562;SDS011;16392;52.508;13.468;2022-10-24T05:34:41;415.77;;;94.68;;
8562;SDS011;16392;52.508;13.468;2022-10-24T05:37:09;417.45;;;96.82;;
8562;SDS011;16392;52.508;13.468;2022-10-24T05:39:36;417.50;;;97.72;;
8562;SDS011;16392;52.508;13.468;2022-10-24T05:42:05;415.65;;;95.00;;
8562;SDS011;16392;52.508;13.468;2022-10-24T05:44:33;416.02;;;96.15;;
8562;SDS011;16392;52.508;13.468;2022-10-24T05:47:00;418.50;;;98.40;;
8562;SDS011;16392;52.508;13.468;2022-10-24T05:49:26;417.10;;;95.53;;
8562;SDS011;16392;52.508;13.468;2022-10-24T05:51:53;414.77;;;93.83;;
8562;SDS011;16392;52.508;13.468;2022-10-24T05:54:20;416.52;;;91.05;;
8562;SDS011;16392;52.508;13.468;2022-10-24T05:56:46;415.40;;;96.50;;
8562;SDS011;16392;52.508;13.468;2022-10-24T05:59:15;414.45;;;91.90;;
8562;SDS011;16392;52.508;13.468;2022-10-24T06:01:41;414.45;;;91.97;;
8562;SDS011;16392;52.508;13.468;2022-10-24T06:04:09;415.58;;;93.00;;
8562;SDS011;16392;52.508;13.468;2022-10-24T06:06:37;413.60;;;90.78;;
8562;SDS011;16392;52.508;13.468;2022-10-24T06:09:04;415.55;;;95.70;;
8562;SDS011;16392;52.508;13.468;2022-10-24T06:11:31;418.00;;;96.40;;
8562;SDS011;16392;52.508;13.468;2022-10-24T06:13:57;414.13;;;92.93;;
8562;SDS011;16392;52.508;13.468;2022-10-24T06:16:25;416.77;;;95.60;;
8562;SDS011;16392;52.508;13.468;2022-10-24T06:18:54;416.27;;;94.68;;
8562;SDS011;16392;52.508;13.468;2022-10-24T06:21:21;416.23;;;97.80;;
8562;SDS011;16392;52.508;13.468;2022-10-24T06:23:51;415.60;;;98.93;;
8562;SDS011;16392;52.508;13.468;2022-10-24T06:26:18;418.55;;;101.40;;
8562;SDS011;16392;52.508;13.468;2022-10-24T06:28:45;416.10;;;96.97;;
8562;SDS011;16392;52.508;13.468;2022-10-24T06:31:12;419.30;;;98.28;;
8562;SDS011;16392;52.508;13.468;2022-10-24T06:33:41;416.55;;;96.05;;
8562;SDS011;16392;52.508;13.468;2022-10-24T06:36:09;417.05;;;93.78;;
8562;SDS011;16392;52.508;13.468;2022-10-24T06:38:36;418.15;;;94.63;;
8562;SDS011;16392;52.508;13.468;2022-10-24T06:41:06;415.45;;;93.93;;
8562;SDS011;16392;52.508;13.468;2022-10-24T06:43:34;419.08;;;98.00;;
8562;SDS011;16392;52.508;13.468;2022-10-24T06:46:03;423.23;;;99.25;;
8562;SDS011;16392;52.508;13.468;2022-10-24T06:48:31;419.50;;;102.80;;
8562;SDS011;16392;52.508;13.468;2022-10-24T06:50:59;419.13;;;98.57;;
8562;SDS011;16392;52.508;13.468;2022-10-24T06:53:26;421.05;;;105.55;;
8562;SDS011;16392;52.508;13.468;2022-10-24T06:55:53;418.73;;;97.10;;
8562;SDS011;16392;52.508;13.468;2022-10-24T06:58:19;420.40;;;98.15;;
8562;SDS011;16392;52.508;13.468;2022-10-24T07:00:46;421.13;;;101.25;;
8562;SDS011;16392;52.508;13.468;2022-10-24T07:03:13;420.83;;;97.32;;
8562;SDS011;16392;52.508;13.468;2022-10-24T07:05:40;423.70;;;100.55;;
8562;SDS011;16392;52.508;13.468;2022-10-24T07:08:09;418.85;;;95.72;;
8562;SDS011;16392;52.508;13.468;2022-10-24T07:10:36;420.17;;;98.07;;
8562;SDS011;16392;52.508;13.468;2022-10-24T07:13:02;421.02;;;99.22;;
8562;SDS011;16392;52.508;13.468;2022-10-24T07:15:29;417.38;;;94.82;;
8562;SDS011;16392;52.508;13.468;2022-10-24T07:17:56;419.15;;;100.43;;
8562;SDS011;16392;52.508;13.468;2022-10-24T07:20:22;424.83;;;106.18;;
8562;SDS011;16392;52.508;13.468;2022-10-24T07:22:49;434.80;;;101.57;;
8562;SDS011;16392;52.508;13.468;2022-10-24T07:25:18;430.55;;;103.20;;
8562;SDS011;16392;52.508;13.468;2022-10-24T07:27:44;428.75;;;102.18;;
8562;SDS011;16392;52.508;13.468;2022-10-24T07:30:14;424.23;;;103.20;;
8562;SDS011;16392;52.508;13.468;2022-10-24T07:32:42;426.02;;;103.13;;
8562;SDS011;16392;52.508;13.468;2022-10-24T07:35:10;428.33;;;107.32;;
8562;SDS011;16392;52.508;13.468;2022-10-24T07:37:37;427.98;;;104.80;;
8562;SDS011;16392;52.508;13.468;2022-10-24T07:40:03;432.58;;;107.57;;
8562;SDS011;16392;52.508;13.468;2022-10-24T07:42:32;432.20;;;105.50;;
8562;SDS011;16392;52.508;13.468;2022-10-24T07:44:59;435.33;;;111.45;;
8562;SDS011;16392;52.508;13.468;2022-10-24T07:47:26;436.40;;;113.57;;
8562;SDS011;16392;52.508;13.468;2022-10-24T07:49:53;443.58;;;125.45;;
8562;SDS011;16392;52.508;13.468;2022-10-24T07:52:21;439.70;;;113.50;;
8562;SDS011;16392;52.508;13.468;2022-10-24T07:54:47;439.85;;;116.35;;
8562;SDS011;16392;52.508;13.468;2022-10-24T07:57:14;442.05;;;120.13;;
8562;SDS011;16392;52.508;13.468;2022-10-24T07:59:42;440.35;;;118.20;;
8562;SDS011;16392;52.508;13.468;2022-10-24T08:02:09;445.27;;;123.03;;
8562;SDS011;16392;52.508;13.468;2022-10-24T08:04:36;448.45;;;127.22;;
8562;SDS011;16392;52.508;13.468;2022-10-24T08:07:03;447.10;;;123.50;;
8562;SDS011;16392;52.508;13.468;2022-10-24T08:09:35;454.00;;;133.30;;
8562;SDS011;16392;52.508;13.468;2022-10-24T08:12:02;451.15;;;126.15;;
8562;SDS011;16392;52.508;13.468;2022-10-24T08:14:29;450.85;;;131.07;;
8562;SDS011;16392;52.508;13.468;2022-10-24T08:16:57;451.67;;;129.48;;
8562;SDS011;16392;52.508;13.468;2022-10-24T08:19:24;451.58;;;132.75;;
8562;SDS011;16392;52.508;13.468;2022-10-24T08:21:51;453.83;;;134.13;;
8562;SDS011;16392;52.508;13.468;2022-10-24T08:24:17;456.23;;;139.60;;
8562;SDS011;16392;52.508;13.468;2022-10-24T08:26:44;453.67;;;130.75;;
8562;SDS011;16392;52.508;13.468;2022-10-24T08:29:11;459.50;;;143.65;;
8562;SDS011;16392;52.508;13.468;2022-10-24T08:31:39;459.63;;;145.73;;
8562;SDS011;16392;52.508;13.468;2022-10-24T08:34:08;460.35;;;146.52;;
8562;SDS011;16392;52.508;13.468;2022-10-24T08:36:37;469.23;;;155.98;;
8562;SDS011;16392;52.508;13.468;2022-10-24T08:39:04;466.92;;;154.32;;
8562;SDS011;16392;52.508;13.468;2022-10-24T08:41:31;466.77;;;156.23;;
8562;SDS011;16392;52.508;13.468;2022-10-24T08:44:01;468.08;;;164.10;;
8562;SDS011;16392;52.508;13.468;2022-10-24T08:46:38;468.63;;;164.30;;
8562;SDS011;16392;52.508;13.468;2022-10-24T08:49:16;468.90;;;157.20;;
8562;SDS011;16392;52.508;13.468;2022-10-24T08:51:50;467.27;;;166.63;;
8562;SDS011;16392;52.508;13.468;2022-10-24T08:54:20;468.40;;;168.90;;
8562;SDS011;16392;52.508;13.468;2022-10-24T08:56:50;469.85;;;169.98;;
8562;SDS011;16392;52.508;13.468;2022-10-24T08:59:19;469.02;;;169.30;;
8562;SDS011;16392;52.508;13.468;2022-10-24T09:01:47;468.05;;;167.90;;
8562;SDS011;16392;52.508;13.468;2022-10-24T09:04:20;467.23;;;168.63;;
8562;SDS011;16392;52.508;13.468;2022-10-24T09:06:50;467.38;;;166.88;;
8562;SDS011;16392;52.508;13.468;2022-10-24T09:09:20;474.70;;;179.23;;
8562;SDS011;16392;52.508;13.468;2022-10-24T09:11:51;471.80;;;172.52;;
8562;SDS011;16392;52.508;13.468;2022-10-24T09:14:21;474.65;;;184.48;;
8562;SDS011;16392;52.508;13.468;2022-10-24T09:16:52;475.83;;;181.60;;
8562;SDS011;16392;52.508;13.468;2022-10-24T09:19:23;475.92;;;185.10;;
8562;SDS011;16392;52.508;13.468;2022-10-24T09:21:52;472.58;;;177.80;;
8562;SDS011;16392;52.508;13.468;2022-10-24T09:24:27;479.52;;;175.18;;
8562;SDS011;16392;52.508;13.468;2022-10-24T09:27:01;472.73;;;174.10;;
8562;SDS011;16392;52.508;13.468;2022-10-24T09:29:31;467.92;;;165.90;;
8562;SDS011;16392;52.508;13.468;2022-10-24T09:31:59;470.45;;;173.80;;
8562;SDS011;16392;52.508;13.468;2022-10-24T09:34:28;469.52;;;170.52;;
8562;SDS011;16392;52.508;13.468;2022-10-24T09:36:55;469.67;;;172.95;;
8562;SDS011;16392;52.508;13.468;2022-10-24T09:39:26;473.95;;;180.52;;
8562;SDS011;16392;52.508;13.468;2022-10-24T09:41:54;475.80;;;181.25;;
8562;SDS011;16392;52.508;13.468;2022-10-24T09:44:27;473.67;;;174.07;;
8562;SDS011;16392;52.508;13.468;2022-10-24T09:46:59;475.38;;;193.23;;
8562;SDS011;16392;52.508;13.468;2022-10-24T09:49:33;474.33;;;185.38;;
8562;SDS011;16392;52.508;13.468;2022-10-24T09:52:03;473.67;;;185.57;;
8562;SDS011;16392;52.508;13.468;2022-10-24T09:54:34;474.88;;;186.60;;
8562;SDS011;16392;52.508;13.468;2022-10-24T09:57:03;476.58;;;191.25;;
8562;SDS011;16392;52.508;13.468;2022-10-24T09:59:35;477.50;;;195.00;;
8562;SDS011;16392;52.508;13.468;2022-10-24T10:02:17;474.25;;;189.48;;
8562;SDS011;16392;52.508;13.468;2022-10-24T10:05:09;472.95;;;182.48;;
8562;SDS011;16392;52.508;13.468;2022-10-24T10:07:42;472.10;;;179.50;;
8562;SDS011;16392;52.508;13.468;2022-10-24T10:10:31;473.38;;;184.27;;
8562;SDS011;16392;52.508;13.468;2022-10-24T10:13:01;475.98;;;191.80;;
8562;SDS011;16392;52.508;13.468;2022-10-24T10:15:33;477.85;;;201.05;;
8562;SDS011;16392;52.508;13.468;2022-10-24T10:18:19;479.08;;;205.43;;
8562;SDS011;16392;52.508;13.468;2022-10-24T10:21:00;478.63;;;204.02;;
8562;SDS011;16392;52.508;13.468;2022-10-24T10:23:31;486.33;;;207.13;;
8562;SDS011;16392;52.508;13.468;2022-10-24T10:26:01;481.52;;;201.50;;
8562;SDS011;16392;52.508;13.468;2022-10-24T10:28:31;481.42;;;203.48;;
8562;SDS011;16392;52.508;13.468;2022-10-24T10:31:00;483.38;;;211.30;;
8562;SDS011;16392;52.508;13.468;2022-10-24T10:33:29;478.10;;;198.82;;
8562;SDS011;16392;52.508;13.468;2022-10-24T10:36:09;477.00;;;193.50;;
8562;SDS011;16392;52.508;13.468;2022-10-24T10:38:48;479.63;;;204.50;;
8562;SDS011;16392;52.508;13.468;2022-10-24T10:41:31;477.70;;;201.90;;
8562;SDS011;16392;52.508;13.468;2022-10-24T10:44:09;475.83;;;194.63;;
8562;SDS011;16392;52.508;13.468;2022-10-24T10:46:59;483.48;;;196.98;;
8562;SDS011;16392;52.508;13.468;2022-10-24T10:49:33;476.23;;;196.90;;
8562;SDS011;16392;52.508;13.468;2022-10-24T10:52:06;482.50;;;212.27;;
8562;SDS011;16392;52.508;13.468;2022-10-24T10:54:44;476.48;;;198.90;;
8562;SDS011;16392;52.508;13.468;2022-10-24T10:57:28;476.40;;;193.40;;
8562;SDS011;16392;52.508;13.468;2022-10-24T11:00:00;478.85;;;201.48;;
8562;SDS011;16392;52.508;13.468;2022-10-24T11:02:36;473.42;;;184.63;;
8562;SDS011;16392;52.508;13.468;2022-10-24T11:05:17;474.83;;;191.80;;
8562;SDS011;16392;52.508;13.468;2022-10-24T11:07:54;478.85;;;205.55;;
8562;SDS011;16392;52.508;13.468;2022-10-24T11:10:31;474.75;;;190.15;;
8562;SDS011;16392;52.508;13.468;2022-10-24T11:13:02;475.70;;;192.68;;
8562;SDS011;16392;52.508;13.468;2022-10-24T11:15:33;482.73;;;212.63;;
8562;SDS011;16392;52.508;13.468;2022-10-24T11:18:05;479.58;;;202.73;;
8562;SDS011;16392;52.508;13.468;2022-10-24T11:20:36;477.77;;;204.60;;
8562;SDS011;16392;52.508;13.468;2022-10-24T11:23:11;476.60;;;197.32;;
8562;SDS011;16392;52.508;13.468;2022-10-24T11:25:45;481.30;;;210.80;;
8562;SDS011;16392;52.508;13.468;2022-10-24T11:28:15;479.27;;;206.75;;
8562;SDS011;16392;52.508;13.468;2022-10-24T11:30:46;484.85;;;209.02;;
8562;SDS011;16392;52.508;13.468;2022-10-24T11:33:18;478.85;;;206.32;;
8562;SDS011;16392;52.508;13.468;2022-10-24T11:36:00;476.75;;;196.13;;
8562;SDS011;16392;52.508;13.468;2022-10-24T11:38:39;475.00;;;188.82;;
8562;SDS011;16392;52.508;13.468;2022-10-24T11:41:16;474.73;;;197.73;;
8562;SDS011;16392;52.508;13.468;2022-10-24T11:43:51;481.02;;;204.75;;
8562;SDS011;16392;52.508;13.468;2022-10-24T11:46:22;481.00;;;209.80;;
8562;SDS011;16392;52.508;13.468;2022-10-24T11:48:54;478.30;;;202.38;;
8562;SDS011;16392;52.508;13.468;2022-10-24T11:51:25;476.58;;;193.40;;
8562;SDS011;16392;52.508;13.468;2022-10-24T11:53:57;477.25;;;197.13;;
8562;SDS011;16392;52.508;13.468;2022-10-24T11:56:28;477.65;;;199.70;;
8562;SDS011;16392;52.508;13.468;2022-10-24T11:59:01;475.88;;;194.25;;
8562;SDS011;16392;52.508;13.468;2022-10-24T12:01:40;479.08;;;202.55;;
8562;SDS011;16392;52.508;13.468;2022-10-24T12:04:38;481.35;;;209.75;;
8562;SDS011;16392;52.508;13.468;2022-10-24T12:10:39;480.02;;;209.07;;
8562;SDS011;16392;52.508;13.468;2022-10-24T12:13:30;482.38;;;211.30;;
8562;SDS011;16392;52.508;13.468;2022-10-24T12:16:08;483.20;;;211.77;;
8562;SDS011;16392;52.508;13.468;2022-10-24T12:18:41;479.02;;;210.23;;
8562;SDS011;16392;52.508;13.468;2022-10-24T12:21:11;484.33;;;219.40;;
8562;SDS011;16392;52.508;13.468;2022-10-24T12:23:41;479.27;;;208.82;;
8562;SDS011;16392;52.508;13.468;2022-10-24T12:26:19;486.92;;;230.55;;
8562;SDS011;16392;52.508;13.468;2022-10-24T12:28:54;478.52;;;207.48;;
8562;SDS011;16392;52.508;13.468;2022-10-24T12:31:24;486.23;;;219.23;;
8562;SDS011;16392;52.508;13.468;2022-10-24T12:36:59;478.63;;;205.52;;
8562;SDS011;16392;52.508;13.468;2022-10-24T12:39:29;485.55;;;220.02;;
8562;SDS011;16392;52.508;13.468;2022-10-24T12:41:59;479.40;;;212.60;;
8562;SDS011;16392;52.508;13.468;2022-10-24T12:44:39;487.33;;;216.30;;
8562;SDS011;16392;52.508;13.468;2022-10-24T12:53:32;478.20;;;201.93;;
8562;SDS011;16392;52.508;13.468;2022-10-24T12:56:08;481.80;;;216.43;;
8562;SDS011;16392;52.508;13.468;2022-10-24T12:58:41;483.48;;;220.75;;
8562;SDS011;16392;52.508;13.468;2022-10-24T13:01:11;484.70;;;222.65;;
8562;SDS011;16392;52.508;13.468;2022-10-24T13:04:00;481.08;;;216.60;;
8562;SDS011;16392;52.508;13.468;2022-10-24T13:09:59;506.67;;;265.45;;
8562;SDS011;16392;52.508;13.468;2022-10-24T13:15:49;503.65;;;259.55;;
8562;SDS011;16392;52.508;13.468;2022-10-24T13:18:25;507.95;;;275.70;;
8562;SDS011;16392;52.508;13.468;2022-10-24T13:21:06;505.80;;;265.98;;
8562;SDS011;16392;52.508;13.468;2022-10-24T13:23:42;504.63;;;262.77;;
8562;SDS011;16392;52.508;13.468;2022-10-24T13:26:25;506.73;;;269.40;;
8562;SDS011;16392;52.508;13.468;2022-10-24T13:29:00;507.50;;;264.23;;
8562;SDS011;16392;52.508;13.468;2022-10-24T13:31:49;510.42;;;289.95;;
8562;SDS011;16392;52.508;13.468;2022-10-24T13:34:26;509.25;;;287.65;;
8562;SDS011;16392;52.508;13.468;2022-10-24T13:36:58;511.20;;;290.00;;
8562;SDS011;16392;52.508;13.468;2022-10-24T13:39:29;514.45;;;293.05;;
8562;SDS011;16392;52.508;13.468;2022-10-24T13:42:00;506.90;;;277.42;;
8562;SDS011;16392;52.508;13.468;2022-10-24T13:44:32;507.95;;;280.30;;
8562;SDS011;16392;52.508;13.468;2022-10-24T13:47:12;506.17;;;273.77;;
8562;SDS011;16392;52.508;13.468;2022-10-24T13:49:46;508.85;;;272.85;;
8562;SDS011;16392;52.508;13.468;2022-10-24T13:52:18;506.20;;;273.02;;
8562;SDS011;16392;52.508;13.468;2022-10-24T13:54:51;504.48;;;262.52;;
8562;SDS011;16392;52.508;13.468;2022-10-24T13:57:24;505.55;;;268.80;;
8562;SDS011;16392;52.508;13.468;2022-10-24T13:59:55;503.35;;;263.38;;
8562;SDS011;16392;52.508;13.468;2022-10-24T14:02:25;507.60;;;267.60;;
8562;SDS011;16392;52.508;13.468;2022-10-24T14:04:55;501.73;;;253.77;;
8562;SDS011;16392;52.508;13.468;2022-10-24T14:07:24;503.25;;;255.60;;
8562;SDS011;16392;52.508;13.468;2022-10-24T14:09:55;506.52;;;254.07;;
8562;SDS011;16392;52.508;13.468;2022-10-24T14:12:24;507.48;;;265.33;;
8562;SDS011;16392;52.508;13.468;2022-10-24T14:14:54;499.80;;;245.07;;
8562;SDS011;16392;52.508;13.468;2022-10-24T14:17:24;502.77;;;255.75;;
8562;SDS011;16392;52.508;13.468;2022-10-24T14:19:53;507.00;;;252.98;;
8562;SDS011;16392;52.508;13.468;2022-10-24T14:22:23;500.77;;;249.90;;
8562;SDS011;16392;52.508;13.468;2022-10-24T14:24:52;504.00;;;260.92;;
8562;SDS011;16392;52.508;13.468;2022-10-24T14:27:18;505.52;;;260.98;;
8562;SDS011;16392;52.508;13.468;2022-10-24T14:29:49;505.67;;;263.92;;
8562;SDS011;16392;52.508;13.468;2022-10-24T14:32:22;503.48;;;257.13;;
8562;SDS011;16392;52.508;13.468;2022-10-24T14:34:51;503.17;;;254.05;;
8562;SDS011;16392;52.508;13.468;2022-10-24T14:37:22;503.92;;;258.75;;
8562;SDS011;16392;52.508;13.468;2022-10-24T14:39:52;504.48;;;263.08;;
8562;SDS011;16392;52.508;13.468;2022-10-24T14:42:20;505.40;;;262.63;;
8562;SDS011;16392;52.508;13.468;2022-10-24T14:44:47;501.50;;;252.73;;